createdAt,value
2023-01-18T00:00:03.161Z,-2.33
2023-01-18T00:05:02.698Z,-2.23
2023-01-18T00:10:02.433Z,-2.13
2023-01-18T00:15:03.161Z,-2.19
2023-01-18T00:20:02.316Z,-2.19
2023-01-18T00:25:02.226Z,-2.2
2023-01-18T00:30:03.043Z,-2.24
2023-01-18T00:35:03.004Z,-2.26
2023-01-18T00:40:02.700Z,-2.21
2023-01-18T00:45:02.551Z,-2.27
2023-01-18T00:50:03.198Z,-2.36
2023-01-18T00:55:03.667Z,-2.35
2023-01-18T01:00:03.207Z,-2.29
2023-01-18T01:05:02.834Z,-2.42
2023-01-18T01:10:02.585Z,-2.5
2023-01-18T01:15:02.469Z,-2.29
2023-01-18T01:20:03.162Z,-2.24
2023-01-18T01:25:02.979Z,-2.19
2023-01-18T01:30:02.293Z,-2.2
2023-01-18T01:35:03.036Z,-2.15
2023-01-18T01:40:03.114Z,-2.01
2023-01-18T01:45:02.848Z,-1.96
2023-01-18T01:50:02.916Z,-1.99
2023-01-18T01:55:03.675Z,-1.95
2023-01-18T02:00:02.379Z,-1.91
2023-01-18T02:05:03.027Z,-1.78
2023-01-18T02:10:02.745Z,-1.58
2023-01-18T02:15:02.910Z,-1.58
2023-01-18T02:20:02.552Z,-1.64
2023-01-18T02:25:02.355Z,-1.5
2023-01-18T02:30:03.102Z,-1.35
2023-01-18T02:35:02.934Z,-1.33
2023-01-18T02:40:02.692Z,-1.24
2023-01-18T02:45:02.317Z,-1.24
2023-01-18T02:50:02.980Z,-1.27
2023-01-18T02:55:03.109Z,-1.32
2023-01-18T03:00:02.952Z,-1.41
2023-01-18T03:05:02.501Z,-1.46
2023-01-18T03:10:03.121Z,-1.47
2023-01-18T03:15:02.967Z,-1.36
2023-01-18T03:20:02.714Z,-1.29
2023-01-18T03:25:02.592Z,-1.25
2023-01-18T03:30:02.814Z,-1.19
2023-01-18T03:35:03.446Z,-1.13
2023-01-18T03:40:02.986Z,-1.09
2023-01-18T03:45:02.703Z,-1.04
2023-01-18T03:50:02.541Z,-0.93
2023-01-18T03:55:03.855Z,-0.9
2023-01-18T04:00:02.857Z,-0.85
2023-01-18T04:05:02.580Z,-0.82
2023-01-18T04:10:02.323Z,-0.76
2023-01-18T04:15:03.071Z,-0.74
2023-01-18T04:20:02.815Z,-0.71
2023-01-18T04:25:02.543Z,-0.7
2023-01-18T04:30:02.253Z,-0.66
2023-01-18T04:35:02.891Z,-0.64
2023-01-18T04:40:02.938Z,-0.55
2023-01-18T04:45:02.732Z,-0.5
2023-01-18T04:50:02.346Z,-0.46
2023-01-18T04:55:04.156Z,-0.44
2023-01-18T05:00:02.835Z,-0.42
2023-01-18T05:05:02.649Z,-0.4
2023-01-18T05:10:02.617Z,-0.38
2023-01-18T05:15:02.525Z,-0.33
2023-01-18T05:20:02.460Z,-0.38
2023-01-18T05:25:03.105Z,-0.48
2023-01-18T05:30:03.788Z,-0.53
2023-01-18T05:35:02.507Z,-0.59
2023-01-18T05:40:02.308Z,-0.62
2023-01-18T05:45:02.249Z,-0.63
2023-01-18T05:50:02.969Z,-0.6
2023-01-18T05:55:04.519Z,-0.6
2023-01-18T06:00:02.554Z,-0.59
2023-01-18T06:05:02.259Z,-0.61
2023-01-18T06:10:03.090Z,-0.6
2023-01-18T06:15:03.280Z,-0.58
2023-01-18T06:20:02.605Z,-0.63
2023-01-18T06:25:02.623Z,-0.66
2023-01-18T06:30:02.653Z,-0.67
2023-01-18T06:35:02.648Z,-0.72
2023-01-18T06:40:02.941Z,-0.75
2023-01-18T06:45:02.524Z,-0.7
2023-01-18T06:50:02.188Z,-0.65
2023-01-18T06:55:03.815Z,-0.61
2023-01-18T07:00:02.883Z,-0.56
2023-01-18T07:05:02.593Z,-0.53
2023-01-18T07:10:02.383Z,-0.55
2023-01-18T07:15:12.722Z,-0.57
2023-01-18T07:20:02.627Z,-0.56
2023-01-18T07:25:02.342Z,-0.55
2023-01-18T07:30:03.107Z,-0.53
2023-01-18T07:35:02.997Z,-0.54
2023-01-18T07:40:02.516Z,-0.53
2023-01-18T07:45:02.527Z,-0.53
2023-01-18T07:50:02.208Z,-0.53
2023-01-18T07:55:07.080Z,-0.53
2023-01-18T08:00:02.707Z,-0.56
2023-01-18T08:05:02.596Z,-0.6
2023-01-18T08:10:02.402Z,-0.61
2023-01-18T08:15:02.367Z,-0.61
2023-01-18T08:20:02.325Z,-0.64
2023-01-18T08:25:03.074Z,-0.61
2023-01-18T08:30:02.870Z,-0.56
2023-01-18T08:35:02.857Z,-0.53
2023-01-18T08:40:03.030Z,-0.48
2023-01-18T08:45:02.725Z,-0.39
2023-01-18T08:50:02.436Z,-0.26
2023-01-18T08:55:03.737Z,-0.22
2023-01-18T09:00:03.011Z,-0.18
2023-01-18T09:05:02.667Z,-0.16
2023-01-18T09:10:02.525Z,-0.14
2023-01-18T09:15:02.512Z,-0.06
2023-01-18T09:20:02.450Z,0.01
2023-01-18T09:25:02.444Z,0.06
2023-01-18T09:30:02.307Z,0.17
2023-01-18T09:35:02.954Z,0.28
2023-01-18T09:40:02.623Z,0.26
2023-01-18T09:45:02.570Z,0.28
2023-01-18T09:50:02.331Z,0.34
2023-01-18T09:55:03.716Z,0.6
2023-01-18T10:00:02.872Z,0.82
2023-01-18T10:05:02.524Z,1.07
2023-01-18T10:10:02.363Z,1.13
2023-01-18T10:15:03.094Z,1
2023-01-18T10:20:02.869Z,0.87
2023-01-18T10:25:02.598Z,0.76
2023-01-18T10:30:02.518Z,0.62
2023-01-18T10:35:02.539Z,0.66
2023-01-18T10:40:02.304Z,0.55
2023-01-18T10:45:03.095Z,0.48
2023-01-18T10:50:03.154Z,0.47
2023-01-18T10:55:02.724Z,0.43
2023-01-18T11:00:03.017Z,0.39
2023-01-18T11:05:03.087Z,0.39
2023-01-18T11:10:02.867Z,0.42
2023-01-18T11:15:02.682Z,0.49
2023-01-18T11:20:02.589Z,0.45
2023-01-18T11:25:02.462Z,0.43
2023-01-18T11:30:02.403Z,0.39
2023-01-18T11:35:02.282Z,0.4
2023-01-18T11:40:02.995Z,0.43
2023-01-18T11:45:02.900Z,0.43
2023-01-18T11:50:10.507Z,0.42
2023-01-18T11:55:02.816Z,0.28
2023-01-18T12:00:03.095Z,0.18
2023-01-18T12:05:02.984Z,0.09
2023-01-18T12:10:02.741Z,0.04
2023-01-18T12:15:02.764Z,-0.01
2023-01-18T12:20:02.326Z,-0.02
2023-01-18T12:25:03.245Z,0.01
2023-01-18T12:30:02.912Z,-0.03
2023-01-18T12:35:08.079Z,-0.04
2023-01-18T12:40:02.980Z,-0.05
2023-01-18T12:45:02.877Z,-0.04
2023-01-18T12:50:02.644Z,-0.04
2023-01-18T12:55:03.170Z,-0.06
2023-01-18T13:00:03.074Z,-0.12
2023-01-18T13:05:02.871Z,-0.15
2023-01-18T13:10:02.573Z,-0.14
2023-01-18T13:15:02.807Z,-0.15
2023-01-18T13:20:02.272Z,-0.13
2023-01-18T13:25:02.967Z,-0.11
2023-01-18T13:30:03.207Z,-0.15
2023-01-18T13:35:19.399Z,-0.14
2023-01-18T13:40:02.347Z,-0.13
2023-01-18T13:45:02.379Z,-0.07
2023-01-18T13:50:02.371Z,-0.1
2023-01-18T13:55:04.157Z,-0.04
2023-01-18T14:00:02.922Z,-0.01
2023-01-18T14:05:02.639Z,0.01
2023-01-18T14:10:02.421Z,0.03
2023-01-18T14:15:02.310Z,0.04
2023-01-18T14:20:02.269Z,0.1
2023-01-18T14:25:02.973Z,0.17
2023-01-18T14:30:03.188Z,0.2
2023-01-18T14:35:02.903Z,0.26
2023-01-18T14:40:02.806Z,0.3
2023-01-18T14:45:02.590Z,0.37
2023-01-18T14:50:02.294Z,0.34
2023-01-18T14:55:03.644Z,0.28
2023-01-18T15:00:02.814Z,0.12
2023-01-18T15:05:02.623Z,0.01
2023-01-18T15:10:02.390Z,0.01
2023-01-18T15:15:02.331Z,0.03
2023-01-18T15:20:02.549Z,0
2023-01-18T15:25:02.545Z,-0.16
2023-01-18T15:30:02.434Z,-0.23
2023-01-18T15:35:02.223Z,-0.31
2023-01-18T15:40:02.350Z,-0.38
2023-01-18T15:45:02.323Z,-0.47
2023-01-18T15:50:02.963Z,-0.49
2023-01-18T15:55:03.127Z,-0.5
2023-01-18T16:00:02.547Z,-0.54
2023-01-18T16:05:02.279Z,-0.49
2023-01-18T16:10:03.069Z,-0.5
2023-01-18T16:15:02.795Z,-0.5
2023-01-18T16:20:02.593Z,-0.51
2023-01-18T16:25:02.626Z,-0.51
2023-01-18T16:30:02.321Z,-0.56
2023-01-18T16:35:02.934Z,-0.67
2023-01-18T16:40:02.882Z,-0.7
2023-01-18T16:45:02.548Z,-0.66
2023-01-18T16:50:03.187Z,-0.71
2023-01-18T16:55:03.912Z,-0.74
2023-01-18T17:00:02.834Z,-0.68
2023-01-18T17:05:02.840Z,-0.64
2023-01-18T17:10:02.787Z,-0.55
2023-01-18T17:15:02.388Z,-0.53
2023-01-18T17:20:02.404Z,-0.55
2023-01-18T17:25:03.095Z,-0.53
2023-01-18T17:30:02.963Z,-0.52
2023-01-18T17:35:02.606Z,-0.6
2023-01-18T17:40:22.891Z,-0.75
2023-01-18T17:45:03.301Z,-0.54
2023-01-18T17:50:03.036Z,-0.52
2023-01-18T17:55:04.009Z,-0.57
2023-01-18T18:00:02.835Z,-0.57
2023-01-18T18:05:02.726Z,-0.65
2023-01-18T18:10:02.561Z,-0.65
2023-01-18T18:15:02.425Z,-0.52
2023-01-18T18:20:03.183Z,-0.5
2023-01-18T18:25:02.904Z,-0.58
2023-01-18T18:30:03.032Z,-0.61
2023-01-18T18:35:05.398Z,-0.53
2023-01-18T18:40:02.958Z,-0.73
2023-01-18T18:45:02.744Z,-1.09
2023-01-18T18:50:02.501Z,-1.22
2023-01-18T18:55:03.142Z,-1.14
2023-01-18T19:00:02.326Z,-1.07
2023-01-18T19:05:03.084Z,-1.29
2023-01-18T19:10:02.767Z,-1.53
2023-01-18T19:15:02.904Z,-1.63
2023-01-18T19:20:02.690Z,-1.81
2023-01-18T19:25:04.087Z,-2.07
2023-01-18T19:30:02.434Z,-2.26
2023-01-18T19:35:02.363Z,-2.38
2023-01-18T19:40:02.207Z,-2.45
2023-01-18T19:45:04.739Z,-2.61
2023-01-18T19:50:02.364Z,-2.69
2023-01-18T19:55:03.718Z,-3.04
2023-01-18T20:00:02.981Z,-2.9
2023-01-18T20:05:02.684Z,-2.95
2023-01-18T20:10:02.451Z,-3.35
2023-01-18T20:15:03.177Z,-3.49
2023-01-18T20:20:02.199Z,-3.73
2023-01-18T20:25:03.031Z,-3.78
2023-01-18T20:30:03.150Z,-4.03
2023-01-18T20:35:03.037Z,-4.03
2023-01-18T20:40:02.941Z,-4.4
2023-01-18T20:45:02.565Z,-4.33
2023-01-18T20:50:02.204Z,-4.59
2023-01-18T20:55:03.752Z,-4.55
2023-01-18T21:00:03.210Z,-4.34
2023-01-18T21:05:02.975Z,-3.73
2023-01-18T21:10:02.680Z,-3.82
2023-01-18T21:15:02.553Z,-3.93
2023-01-18T21:20:02.274Z,-3.96
2023-01-18T21:25:03.113Z,-4.03
2023-01-18T21:30:02.878Z,-4.37
2023-01-18T21:35:02.678Z,-4.76
2023-01-18T21:40:02.617Z,-4.23
2023-01-18T21:45:03.239Z,-4.21
2023-01-18T21:50:17.696Z,-4.45
2023-01-18T21:55:03.463Z,-4.66
2023-01-18T22:00:02.411Z,-3.94
2023-01-18T22:05:03.191Z,-3.95
2023-01-18T22:10:08.770Z,-4.93
2023-01-18T22:15:02.437Z,-5.37
2023-01-18T22:20:02.450Z,-5.31
2023-01-18T22:25:03.181Z,-5.19
2023-01-18T22:30:03.114Z,-5.07
2023-01-18T22:35:02.779Z,-5.4
2023-01-18T22:40:02.445Z,-5.65
2023-01-18T22:45:02.464Z,-5.29
2023-01-18T22:50:02.246Z,-5.7
2023-01-18T22:55:03.600Z,-5.17
2023-01-18T23:00:02.835Z,-4.97
2023-01-18T23:05:02.431Z,-5.06
2023-01-18T23:10:03.129Z,-5.31
2023-01-18T23:15:02.883Z,-5.68
2023-01-18T23:20:02.777Z,-5.25
2023-01-18T23:25:02.577Z,-5.73
2023-01-18T23:30:02.436Z,-6.24
2023-01-18T23:35:03.140Z,-5.95
2023-01-18T23:40:02.853Z,-5.24
2023-01-18T23:45:03.052Z,-4.99
2023-01-18T23:50:02.761Z,-5.02
2023-01-18T23:55:03.031Z,-4.99
